sensor_id;sensor_type;location;lat;lon;timestamp;P1;durP1;ratioP1;P2;durP2;ratioP2
31760;SDS011;18335;51.486;7.562;2023-12-29T00:01:48;7.13;;;1.35;;
31760;SDS011;18335;51.486;7.562;2023-12-29T00:04:16;7.78;;;1.33;;
31760;SDS011;18335;51.486;7.562;2023-12-29T00:06:42;8.60;;;1.30;;
31760;SDS011;18335;51.486;7.562;2023-12-29T00:09:09;6.82;;;1.10;;
31760;SDS011;18335;51.486;7.562;2023-12-29T00:11:36;6.53;;;1.10;;
31760;SDS011;18335;51.486;7.562;2023-12-29T00:14:02;7.78;;;1.85;;
31760;SDS011;18335;51.486;7.562;2023-12-29T00:16:29;7.80;;;1.08;;
31760;SDS011;18335;51.486;7.562;2023-12-29T00:18:56;8.13;;;1.75;;
31760;SDS011;18335;51.486;7.562;2023-12-29T00:21:24;5.82;;;1.20;;
31760;SDS011;18335;51.486;7.562;2023-12-29T00:23:50;7.10;;;1.45;;
31760;SDS011;18335;51.486;7.562;2023-12-29T00:26:17;5.13;;;1.02;;
31760;SDS011;18335;51.486;7.562;2023-12-29T00:28:52;9.73;;;1.35;;
31760;SDS011;18335;51.486;7.562;2023-12-29T00:31:18;7.50;;;1.23;;
31760;SDS011;18335;51.486;7.562;2023-12-29T00:33:45;5.20;;;1.35;;
31760;SDS011;18335;51.486;7.562;2023-12-29T00:36:14;6.60;;;1.00;;
31760;SDS011;18335;51.486;7.562;2023-12-29T00:38:43;5.75;;;1.15;;
31760;SDS011;18335;51.486;7.562;2023-12-29T00:41:09;8.35;;;1.38;;
31760;SDS011;18335;51.486;7.562;2023-12-29T00:43:36;9.18;;;2.20;;
31760;SDS011;18335;51.486;7.562;2023-12-29T00:46:03;9.63;;;1.52;;
31760;SDS011;18335;51.486;7.562;2023-12-29T00:48:30;9.68;;;1.58;;
31760;SDS011;18335;51.486;7.562;2023-12-29T00:50:58;12.85;;;2.38;;
31760;SDS011;18335;51.486;7.562;2023-12-29T00:53:24;6.55;;;1.30;;
31760;SDS011;18335;51.486;7.562;2023-12-29T00:55:52;7.43;;;1.25;;
31760;SDS011;18335;51.486;7.562;2023-12-29T00:58:19;8.77;;;1.35;;
31760;SDS011;18335;51.486;7.562;2023-12-29T01:00:46;3.95;;;1.40;;
31760;SDS011;18335;51.486;7.562;2023-12-29T01:03:12;7.75;;;1.42;;
31760;SDS011;18335;51.486;7.562;2023-12-29T01:05:39;7.18;;;1.20;;
31760;SDS011;18335;51.486;7.562;2023-12-29T01:08:05;6.05;;;1.13;;
31760;SDS011;18335;51.486;7.562;2023-12-29T01:10:32;4.20;;;1.27;;
31760;SDS011;18335;51.486;7.562;2023-12-29T01:13:00;5.25;;;1.20;;
31760;SDS011;18335;51.486;7.562;2023-12-29T01:15:27;6.70;;;1.00;;
31760;SDS011;18335;51.486;7.562;2023-12-29T01:17:54;5.32;;;1.27;;
31760;SDS011;18335;51.486;7.562;2023-12-29T01:20:20;6.60;;;1.15;;
31760;SDS011;18335;51.486;7.562;2023-12-29T01:22:48;6.78;;;1.10;;
31760;SDS011;18335;51.486;7.562;2023-12-29T01:25:15;8.80;;;1.02;;
31760;SDS011;18335;51.486;7.562;2023-12-29T01:27:42;3.75;;;1.02;;
31760;SDS011;18335;51.486;7.562;2023-12-29T01:30:10;5.55;;;1.00;;
31760;SDS011;18335;51.486;7.562;2023-12-29T01:32:37;7.13;;;0.98;;
31760;SDS011;18335;51.486;7.562;2023-12-29T01:35:04;10.27;;;2.10;;
31760;SDS011;18335;51.486;7.562;2023-12-29T01:37:31;3.63;;;1.00;;
31760;SDS011;18335;51.486;7.562;2023-12-29T01:39:59;7.40;;;1.30;;
31760;SDS011;18335;51.486;7.562;2023-12-29T01:42:25;7.88;;;1.40;;
31760;SDS011;18335;51.486;7.562;2023-12-29T01:44:52;5.78;;;1.75;;
31760;SDS011;18335;51.486;7.562;2023-12-29T01:47:20;8.15;;;1.02;;
31760;SDS011;18335;51.486;7.562;2023-12-29T01:49:48;6.47;;;1.38;;
31760;SDS011;18335;51.486;7.562;2023-12-29T01:52:16;6.38;;;0.98;;
31760;SDS011;18335;51.486;7.562;2023-12-29T01:54:45;7.70;;;2.15;;
31760;SDS011;18335;51.486;7.562;2023-12-29T01:57:14;10.63;;;1.00;;
31760;SDS011;18335;51.486;7.562;2023-12-29T01:59:40;7.40;;;1.33;;
31760;SDS011;18335;51.486;7.562;2023-12-29T02:02:08;9.13;;;1.38;;
31760;SDS011;18335;51.486;7.562;2023-12-29T02:04:37;9.75;;;1.40;;
31760;SDS011;18335;51.486;7.562;2023-12-29T02:07:06;10.20;;;1.42;;
31760;SDS011;18335;51.486;7.562;2023-12-29T02:09:33;8.07;;;1.30;;
31760;SDS011;18335;51.486;7.562;2023-12-29T02:12:00;5.97;;;1.13;;
31760;SDS011;18335;51.486;7.562;2023-12-29T02:14:28;9.63;;;1.30;;
31760;SDS011;18335;51.486;7.562;2023-12-29T02:16:57;8.63;;;1.50;;
31760;SDS011;18335;51.486;7.562;2023-12-29T02:19:36;8.30;;;1.23;;
31760;SDS011;18335;51.486;7.562;2023-12-29T02:22:06;6.45;;;1.27;;
31760;SDS011;18335;51.486;7.562;2023-12-29T02:24:33;7.22;;;1.65;;
31760;SDS011;18335;51.486;7.562;2023-12-29T02:27:05;7.63;;;1.50;;
31760;SDS011;18335;51.486;7.562;2023-12-29T02:29:38;5.13;;;1.45;;
31760;SDS011;18335;51.486;7.562;2023-12-29T02:32:11;9.60;;;0.98;;
31760;SDS011;18335;51.486;7.562;2023-12-29T02:34:42;5.18;;;1.58;;
31760;SDS011;18335;51.486;7.562;2023-12-29T02:37:11;6.10;;;1.27;;
31760;SDS011;18335;51.486;7.562;2023-12-29T02:39:39;11.50;;;1.55;;
31760;SDS011;18335;51.486;7.562;2023-12-29T02:42:08;14.15;;;2.25;;
31760;SDS011;18335;51.486;7.562;2023-12-29T02:44:35;13.10;;;2.10;;
31760;SDS011;18335;51.486;7.562;2023-12-29T02:47:01;10.00;;;1.90;;
31760;SDS011;18335;51.486;7.562;2023-12-29T02:49:29;9.88;;;1.52;;
31760;SDS011;18335;51.486;7.562;2023-12-29T02:51:56;13.38;;;2.65;;
31760;SDS011;18335;51.486;7.562;2023-12-29T02:54:23;6.53;;;1.50;;
31760;SDS011;18335;51.486;7.562;2023-12-29T02:56:50;7.43;;;1.52;;
31760;SDS011;18335;51.486;7.562;2023-12-29T02:59:18;7.03;;;1.40;;
31760;SDS011;18335;51.486;7.562;2023-12-29T03:01:44;10.38;;;1.60;;
31760;SDS011;18335;51.486;7.562;2023-12-29T03:04:11;8.63;;;1.60;;
31760;SDS011;18335;51.486;7.562;2023-12-29T03:06:39;11.68;;;2.35;;
31760;SDS011;18335;51.486;7.562;2023-12-29T03:09:06;8.45;;;1.80;;
31760;SDS011;18335;51.486;7.562;2023-12-29T03:11:32;8.05;;;1.55;;
31760;SDS011;18335;51.486;7.562;2023-12-29T03:13:59;10.55;;;1.50;;
31760;SDS011;18335;51.486;7.562;2023-12-29T03:16:27;7.05;;;1.88;;
31760;SDS011;18335;51.486;7.562;2023-12-29T03:18:54;6.15;;;1.33;;
31760;SDS011;18335;51.486;7.562;2023-12-29T03:21:20;12.68;;;1.80;;
31760;SDS011;18335;51.486;7.562;2023-12-29T03:23:47;11.50;;;2.00;;
31760;SDS011;18335;51.486;7.562;2023-12-29T03:26:14;12.60;;;2.10;;
31760;SDS011;18335;51.486;7.562;2023-12-29T03:28:42;7.88;;;1.80;;
31760;SDS011;18335;51.486;7.562;2023-12-29T03:31:09;7.63;;;1.83;;
31760;SDS011;18335;51.486;7.562;2023-12-29T03:33:37;14.82;;;2.50;;
31760;SDS011;18335;51.486;7.562;2023-12-29T03:36:05;9.57;;;2.83;;
31760;SDS011;18335;51.486;7.562;2023-12-29T03:38:33;12.40;;;2.88;;
31760;SDS011;18335;51.486;7.562;2023-12-29T03:41:01;12.98;;;3.00;;
31760;SDS011;18335;51.486;7.562;2023-12-29T03:43:28;8.52;;;1.85;;
31760;SDS011;18335;51.486;7.562;2023-12-29T03:45:55;11.73;;;2.65;;
31760;SDS011;18335;51.486;7.562;2023-12-29T03:48:23;8.00;;;1.83;;
31760;SDS011;18335;51.486;7.562;2023-12-29T03:50:51;8.85;;;2.03;;
31760;SDS011;18335;51.486;7.562;2023-12-29T03:53:18;10.02;;;2.42;;
31760;SDS011;18335;51.486;7.562;2023-12-29T03:55:44;5.68;;;1.40;;
31760;SDS011;18335;51.486;7.562;2023-12-29T03:58:11;12.18;;;2.58;;
31760;SDS011;18335;51.486;7.562;2023-12-29T04:00:38;9.07;;;1.80;;
31760;SDS011;18335;51.486;7.562;2023-12-29T04:03:06;12.68;;;4.20;;
31760;SDS011;18335;51.486;7.562;2023-12-29T04:05:33;12.95;;;2.65;;
31760;SDS011;18335;51.486;7.562;2023-12-29T04:08:01;8.90;;;1.60;;
31760;SDS011;18335;51.486;7.562;2023-12-29T04:10:28;8.95;;;1.70;;
31760;SDS011;18335;51.486;7.562;2023-12-29T04:12:56;8.10;;;1.63;;
31760;SDS011;18335;51.486;7.562;2023-12-29T04:15:23;9.38;;;2.33;;
31760;SDS011;18335;51.486;7.562;2023-12-29T04:17:49;9.65;;;1.80;;
31760;SDS011;18335;51.486;7.562;2023-12-29T04:20:16;8.25;;;2.47;;
31760;SDS011;18335;51.486;7.562;2023-12-29T04:22:43;8.70;;;1.73;;
31760;SDS011;18335;51.486;7.562;2023-12-29T04:25:11;8.70;;;1.65;;
31760;SDS011;18335;51.486;7.562;2023-12-29T04:27:39;7.70;;;1.92;;
31760;SDS011;18335;51.486;7.562;2023-12-29T04:30:06;6.80;;;1.80;;
31760;SDS011;18335;51.486;7.562;2023-12-29T04:32:33;6.10;;;1.63;;
31760;SDS011;18335;51.486;7.562;2023-12-29T04:35:00;7.38;;;1.58;;
31760;SDS011;18335;51.486;7.562;2023-12-29T04:37:27;9.77;;;1.58;;
31760;SDS011;18335;51.486;7.562;2023-12-29T04:39:53;12.27;;;2.38;;
31760;SDS011;18335;51.486;7.562;2023-12-29T04:42:21;10.25;;;1.83;;
31760;SDS011;18335;51.486;7.562;2023-12-29T04:44:48;8.35;;;1.40;;
31760;SDS011;18335;51.486;7.562;2023-12-29T04:47:15;6.18;;;1.58;;
31760;SDS011;18335;51.486;7.562;2023-12-29T04:49:41;13.93;;;2.53;;
31760;SDS011;18335;51.486;7.562;2023-12-29T04:52:08;16.05;;;3.25;;
31760;SDS011;18335;51.486;7.562;2023-12-29T04:54:35;6.55;;;1.65;;
31760;SDS011;18335;51.486;7.562;2023-12-29T04:57:02;8.50;;;1.65;;
31760;SDS011;18335;51.486;7.562;2023-12-29T04:59:30;8.98;;;1.73;;
31760;SDS011;18335;51.486;7.562;2023-12-29T05:01:57;9.82;;;1.45;;
31760;SDS011;18335;51.486;7.562;2023-12-29T05:04:23;8.30;;;1.92;;
31760;SDS011;18335;51.486;7.562;2023-12-29T05:06:50;9.05;;;2.35;;
31760;SDS011;18335;51.486;7.562;2023-12-29T05:09:17;8.27;;;1.55;;
31760;SDS011;18335;51.486;7.562;2023-12-29T05:11:43;9.65;;;1.67;;
31760;SDS011;18335;51.486;7.562;2023-12-29T05:14:10;9.98;;;1.65;;
31760;SDS011;18335;51.486;7.562;2023-12-29T05:16:38;11.70;;;1.52;;
31760;SDS011;18335;51.486;7.562;2023-12-29T05:19:05;8.15;;;1.50;;
31760;SDS011;18335;51.486;7.562;2023-12-29T05:21:32;9.70;;;2.17;;
31760;SDS011;18335;51.486;7.562;2023-12-29T05:23:58;9.20;;;1.50;;
31760;SDS011;18335;51.486;7.562;2023-12-29T05:26:25;8.73;;;2.58;;
31760;SDS011;18335;51.486;7.562;2023-12-29T05:28:52;7.63;;;1.58;;
31760;SDS011;18335;51.486;7.562;2023-12-29T05:31:19;8.43;;;1.52;;
31760;SDS011;18335;51.486;7.562;2023-12-29T05:33:48;8.05;;;1.63;;
31760;SDS011;18335;51.486;7.562;2023-12-29T05:36:14;10.38;;;1.83;;
31760;SDS011;18335;51.486;7.562;2023-12-29T05:38:42;13.73;;;1.52;;
31760;SDS011;18335;51.486;7.562;2023-12-29T05:41:12;7.28;;;1.77;;
31760;SDS011;18335;51.486;7.562;2023-12-29T05:43:39;9.10;;;1.35;;
31760;SDS011;18335;51.486;7.562;2023-12-29T05:46:08;10.80;;;1.38;;
31760;SDS011;18335;51.486;7.562;2023-12-29T05:48:36;11.02;;;1.73;;
31760;SDS011;18335;51.486;7.562;2023-12-29T05:51:06;7.43;;;1.10;;
31760;SDS011;18335;51.486;7.562;2023-12-29T05:53:34;10.23;;;1.30;;
31760;SDS011;18335;51.486;7.562;2023-12-29T05:56:00;7.53;;;1.42;;
31760;SDS011;18335;51.486;7.562;2023-12-29T05:58:27;10.60;;;1.90;;
31760;SDS011;18335;51.486;7.562;2023-12-29T06:00:54;10.65;;;1.90;;
31760;SDS011;18335;51.486;7.562;2023-12-29T06:03:21;11.15;;;2.15;;
31760;SDS011;18335;51.486;7.562;2023-12-29T06:05:48;10.82;;;2.47;;
31760;SDS011;18335;51.486;7.562;2023-12-29T06:08:16;9.25;;;1.60;;
31760;SDS011;18335;51.486;7.562;2023-12-29T06:10:42;7.25;;;1.35;;
31760;SDS011;18335;51.486;7.562;2023-12-29T06:13:09;5.93;;;1.15;;
31760;SDS011;18335;51.486;7.562;2023-12-29T06:15:36;9.10;;;1.63;;
31760;SDS011;18335;51.486;7.562;2023-12-29T06:18:03;11.15;;;2.67;;
31760;SDS011;18335;51.486;7.562;2023-12-29T06:20:30;10.52;;;2.35;;
31760;SDS011;18335;51.486;7.562;2023-12-29T06:22:57;7.47;;;1.63;;
31760;SDS011;18335;51.486;7.562;2023-12-29T06:25:27;10.07;;;2.42;;
31760;SDS011;18335;51.486;7.562;2023-12-29T06:27:54;10.75;;;2.42;;
31760;SDS011;18335;51.486;7.562;2023-12-29T06:30:21;7.20;;;1.50;;
31760;SDS011;18335;51.486;7.562;2023-12-29T06:32:48;9.93;;;1.33;;
31760;SDS011;18335;51.486;7.562;2023-12-29T06:35:17;7.60;;;1.50;;
31760;SDS011;18335;51.486;7.562;2023-12-29T06:37:43;6.78;;;1.90;;
31760;SDS011;18335;51.486;7.562;2023-12-29T06:40:10;10.38;;;1.50;;
31760;SDS011;18335;51.486;7.562;2023-12-29T06:42:39;11.23;;;1.75;;
31760;SDS011;18335;51.486;7.562;2023-12-29T06:45:06;5.50;;;1.30;;
31760;SDS011;18335;51.486;7.562;2023-12-29T06:47:34;9.07;;;1.60;;
31760;SDS011;18335;51.486;7.562;2023-12-29T06:50:01;9.27;;;1.27;;
31760;SDS011;18335;51.486;7.562;2023-12-29T06:52:28;9.85;;;1.40;;
31760;SDS011;18335;51.486;7.562;2023-12-29T06:54:59;9.88;;;1.88;;
31760;SDS011;18335;51.486;7.562;2023-12-29T06:57:26;14.35;;;1.83;;
31760;SDS011;18335;51.486;7.562;2023-12-29T06:59:54;5.60;;;1.48;;
31760;SDS011;18335;51.486;7.562;2023-12-29T07:02:21;10.48;;;1.70;;
31760;SDS011;18335;51.486;7.562;2023-12-29T07:04:47;7.75;;;1.85;;
31760;SDS011;18335;51.486;7.562;2023-12-29T07:07:14;8.68;;;1.52;;
31760;SDS011;18335;51.486;7.562;2023-12-29T07:09:41;9.80;;;1.50;;
31760;SDS011;18335;51.486;7.562;2023-12-29T07:12:08;13.52;;;2.58;;
31760;SDS011;18335;51.486;7.562;2023-12-29T07:14:35;8.98;;;1.30;;
31760;SDS011;18335;51.486;7.562;2023-12-29T07:17:03;9.80;;;1.20;;
31760;SDS011;18335;51.486;7.562;2023-12-29T07:19:30;8.27;;;1.15;;
31760;SDS011;18335;51.486;7.562;2023-12-29T07:22:02;8.40;;;1.52;;
31760;SDS011;18335;51.486;7.562;2023-12-29T07:24:30;5.55;;;1.10;;
31760;SDS011;18335;51.486;7.562;2023-12-29T07:26:57;8.30;;;1.50;;
31760;SDS011;18335;51.486;7.562;2023-12-29T07:29:23;11.05;;;1.50;;
31760;SDS011;18335;51.486;7.562;2023-12-29T07:31:50;11.75;;;3.42;;
31760;SDS011;18335;51.486;7.562;2023-12-29T07:34:18;6.72;;;2.15;;
31760;SDS011;18335;51.486;7.562;2023-12-29T07:36:45;7.55;;;2.22;;
31760;SDS011;18335;51.486;7.562;2023-12-29T07:39:12;10.52;;;1.75;;
31760;SDS011;18335;51.486;7.562;2023-12-29T07:41:39;10.48;;;1.40;;
31760;SDS011;18335;51.486;7.562;2023-12-29T07:44:05;10.45;;;1.50;;
31760;SDS011;18335;51.486;7.562;2023-12-29T07:46:33;9.52;;;1.73;;
31760;SDS011;18335;51.486;7.562;2023-12-29T07:48:59;8.55;;;1.58;;
31760;SDS011;18335;51.486;7.562;2023-12-29T07:51:27;8.50;;;1.60;;
31760;SDS011;18335;51.486;7.562;2023-12-29T07:53:54;11.05;;;2.42;;
31760;SDS011;18335;51.486;7.562;2023-12-29T07:56:21;7.95;;;1.40;;
31760;SDS011;18335;51.486;7.562;2023-12-29T07:58:48;7.03;;;1.70;;
31760;SDS011;18335;51.486;7.562;2023-12-29T08:01:14;5.88;;;1.30;;
31760;SDS011;18335;51.486;7.562;2023-12-29T08:03:41;6.78;;;1.80;;
31760;SDS011;18335;51.486;7.562;2023-12-29T08:06:08;10.20;;;1.50;;
31760;SDS011;18335;51.486;7.562;2023-12-29T08:08:36;10.43;;;2.10;;
31760;SDS011;18335;51.486;7.562;2023-12-29T08:11:03;11.32;;;1.73;;
31760;SDS011;18335;51.486;7.562;2023-12-29T08:13:30;9.57;;;1.60;;
31760;SDS011;18335;51.486;7.562;2023-12-29T08:15:57;11.70;;;4.00;;
31760;SDS011;18335;51.486;7.562;2023-12-29T08:18:23;8.23;;;1.90;;
31760;SDS011;18335;51.486;7.562;2023-12-29T08:20:50;13.25;;;2.63;;
31760;SDS011;18335;51.486;7.562;2023-12-29T08:23:17;8.40;;;1.80;;
31760;SDS011;18335;51.486;7.562;2023-12-29T08:25:45;5.80;;;1.63;;
31760;SDS011;18335;51.486;7.562;2023-12-29T08:28:12;9.93;;;2.35;;
31760;SDS011;18335;51.486;7.562;2023-12-29T08:30:39;7.35;;;1.30;;
31760;SDS011;18335;51.486;7.562;2023-12-29T08:33:06;7.95;;;1.52;;
31760;SDS011;18335;51.486;7.562;2023-12-29T08:35:33;7.07;;;2.38;;
31760;SDS011;18335;51.486;7.562;2023-12-29T08:38:00;10.40;;;1.75;;
31760;SDS011;18335;51.486;7.562;2023-12-29T08:40:26;6.45;;;1.63;;
31760;SDS011;18335;51.486;7.562;2023-12-29T08:42:55;13.38;;;2.75;;
31760;SDS011;18335;51.486;7.562;2023-12-29T08:45:22;10.65;;;1.90;;
31760;SDS011;18335;51.486;7.562;2023-12-29T08:47:49;4.88;;;1.25;;
31760;SDS011;18335;51.486;7.562;2023-12-29T08:50:16;5.55;;;1.45;;
31760;SDS011;18335;51.486;7.562;2023-12-29T08:52:43;5.18;;;1.35;;
31760;SDS011;18335;51.486;7.562;2023-12-29T08:55:09;9.80;;;1.67;;
31760;SDS011;18335;51.486;7.562;2023-12-29T08:57:36;11.13;;;2.30;;
31760;SDS011;18335;51.486;7.562;2023-12-29T09:00:05;8.48;;;1.20;;
31760;SDS011;18335;51.486;7.562;2023-12-29T09:02:34;5.18;;;1.63;;
31760;SDS011;18335;51.486;7.562;2023-12-29T09:05:01;5.75;;;1.05;;
31760;SDS011;18335;51.486;7.562;2023-12-29T09:07:28;6.65;;;1.15;;
31760;SDS011;18335;51.486;7.562;2023-12-29T09:09:55;12.35;;;2.65;;
31760;SDS011;18335;51.486;7.562;2023-12-29T09:12:23;4.22;;;1.15;;
31760;SDS011;18335;51.486;7.562;2023-12-29T09:14:50;5.82;;;0.85;;
31760;SDS011;18335;51.486;7.562;2023-12-29T09:17:18;4.22;;;0.90;;
31760;SDS011;18335;51.486;7.562;2023-12-29T09:19:44;5.40;;;1.75;;
31760;SDS011;18335;51.486;7.562;2023-12-29T09:22:12;3.70;;;1.13;;
31760;SDS011;18335;51.486;7.562;2023-12-29T09:24:39;4.60;;;0.93;;
31760;SDS011;18335;51.486;7.562;2023-12-29T09:27:06;4.05;;;1.67;;
31760;SDS011;18335;51.486;7.562;2023-12-29T09:29:33;7.45;;;1.80;;
31760;SDS011;18335;51.486;7.562;2023-12-29T09:32:00;6.07;;;0.90;;
31760;SDS011;18335;51.486;7.562;2023-12-29T09:34:28;1.42;;;0.57;;
31760;SDS011;18335;51.486;7.562;2023-12-29T09:36:55;4.82;;;1.05;;
31760;SDS011;18335;51.486;7.562;2023-12-29T09:39:22;2.38;;;0.80;;
31760;SDS011;18335;51.486;7.562;2023-12-29T09:41:51;3.05;;;1.00;;
31760;SDS011;18335;51.486;7.562;2023-12-29T09:44:19;5.50;;;1.05;;
31760;SDS011;18335;51.486;7.562;2023-12-29T09:46:48;0.80;;;0.50;;
31760;SDS011;18335;51.486;7.562;2023-12-29T09:49:16;4.68;;;0.70;;
31760;SDS011;18335;51.486;7.562;2023-12-29T09:51:47;2.30;;;0.60;;
31760;SDS011;18335;51.486;7.562;2023-12-29T09:54:14;4.20;;;0.75;;
31760;SDS011;18335;51.486;7.562;2023-12-29T09:56:41;3.05;;;0.40;;
31760;SDS011;18335;51.486;7.562;2023-12-29T09:59:09;7.32;;;0.60;;
31760;SDS011;18335;51.486;7.562;2023-12-29T10:01:36;2.03;;;0.50;;
31760;SDS011;18335;51.486;7.562;2023-12-29T10:04:04;2.90;;;1.75;;
31760;SDS011;18335;51.486;7.562;2023-12-29T10:06:32;2.70;;;0.40;;
31760;SDS011;18335;51.486;7.562;2023-12-29T10:09:04;2.55;;;0.30;;
31760;SDS011;18335;51.486;7.562;2023-12-29T10:11:34;2.13;;;0.40;;
31760;SDS011;18335;51.486;7.562;2023-12-29T10:14:06;1.27;;;0.40;;
31760;SDS011;18335;51.486;7.562;2023-12-29T10:16:41;1.48;;;0.40;;
31760;SDS011;18335;51.486;7.562;2023-12-29T10:19:14;1.00;;;0.32;;
31760;SDS011;18335;51.486;7.562;2023-12-29T10:21:51;3.33;;;0.63;;
31760;SDS011;18335;51.486;7.562;2023-12-29T10:24:23;3.78;;;0.40;;
31760;SDS011;18335;51.486;7.562;2023-12-29T10:26:51;2.65;;;0.40;;
31760;SDS011;18335;51.486;7.562;2023-12-29T10:29:19;2.53;;;0.40;;
31760;SDS011;18335;51.486;7.562;2023-12-29T10:31:47;5.22;;;0.70;;
31760;SDS011;18335;51.486;7.562;2023-12-29T10:34:16;2.22;;;0.40;;
31760;SDS011;18335;51.486;7.562;2023-12-29T10:36:46;1.25;;;0.30;;
31760;SDS011;18335;51.486;7.562;2023-12-29T10:39:13;1.00;;;0.30;;
31760;SDS011;18335;51.486;7.562;2023-12-29T10:41:41;2.80;;;0.25;;
31760;SDS011;18335;51.486;7.562;2023-12-29T10:44:08;2.03;;;0.40;;
31760;SDS011;18335;51.486;7.562;2023-12-29T10:46:35;1.88;;;0.40;;
31760;SDS011;18335;51.486;7.562;2023-12-29T10:49:06;0.75;;;0.08;;
31760;SDS011;18335;51.486;7.562;2023-12-29T10:51:33;1.75;;;0.30;;
31760;SDS011;18335;51.486;7.562;2023-12-29T10:54:00;1.00;;;0.30;;
31760;SDS011;18335;51.486;7.562;2023-12-29T10:56:28;1.35;;;0.20;;
31760;SDS011;18335;51.486;7.562;2023-12-29T10:59:00;1.67;;;0.32;;
31760;SDS011;18335;51.486;7.562;2023-12-29T11:01:28;0.95;;;0.40;;
31760;SDS011;18335;51.486;7.562;2023-12-29T11:03:58;0.70;;;0.20;;
31760;SDS011;18335;51.486;7.562;2023-12-29T11:06:26;1.35;;;0.50;;
31760;SDS011;18335;51.486;7.562;2023-12-29T11:08:54;2.47;;;0.55;;
31760;SDS011;18335;51.486;7.562;2023-12-29T11:11:21;0.60;;;0.30;;
31760;SDS011;18335;51.486;7.562;2023-12-29T11:13:49;3.70;;;0.50;;
31760;SDS011;18335;51.486;7.562;2023-12-29T11:16:18;2.33;;;0.55;;
31760;SDS011;18335;51.486;7.562;2023-12-29T11:18:47;1.25;;;0.45;;
31760;SDS011;18335;51.486;7.562;2023-12-29T11:21:16;3.28;;;0.73;;
31760;SDS011;18335;51.486;7.562;2023-12-29T11:23:46;1.52;;;0.60;;
31760;SDS011;18335;51.486;7.562;2023-12-29T11:26:13;2.67;;;0.60;;
31760;SDS011;18335;51.486;7.562;2023-12-29T11:28:42;0.65;;;0.30;;
31760;SDS011;18335;51.486;7.562;2023-12-29T11:31:09;1.98;;;0.45;;
31760;SDS011;18335;51.486;7.562;2023-12-29T11:33:39;4.28;;;0.75;;
31760;SDS011;18335;51.486;7.562;2023-12-29T11:36:12;1.60;;;0.40;;
31760;SDS011;18335;51.486;7.562;2023-12-29T11:38:45;1.70;;;0.40;;
31760;SDS011;18335;51.486;7.562;2023-12-29T11:41:21;4.00;;;1.20;;
31760;SDS011;18335;51.486;7.562;2023-12-29T11:43:56;3.03;;;0.57;;
31760;SDS011;18335;51.486;7.562;2023-12-29T11:46:33;3.35;;;0.73;;
31760;SDS011;18335;51.486;7.562;2023-12-29T11:49:02;1.40;;;0.57;;
31760;SDS011;18335;51.486;7.562;2023-12-29T11:51:30;4.53;;;1.23;;
31760;SDS011;18335;51.486;7.562;2023-12-29T11:53:59;2.30;;;0.80;;
31760;SDS011;18335;51.486;7.562;2023-12-29T11:56:33;6.05;;;1.00;;
31760;SDS011;18335;51.486;7.562;2023-12-29T11:59:17;3.85;;;1.20;;
31760;SDS011;18335;51.486;7.562;2023-12-29T12:01:46;5.40;;;0.95;;
31760;SDS011;18335;51.486;7.562;2023-12-29T12:07:07;8.30;;;1.00;;
31760;SDS011;18335;51.486;7.562;2023-12-29T12:09:34;3.47;;;0.60;;
31760;SDS011;18335;51.486;7.562;2023-12-29T12:12:02;6.25;;;0.90;;
31760;SDS011;18335;51.486;7.562;2023-12-29T12:14:46;2.88;;;0.65;;
31760;SDS011;18335;51.486;7.562;2023-12-29T12:17:26;6.80;;;1.20;;
31760;SDS011;18335;51.486;7.562;2023-12-29T12:19:56;2.53;;;0.80;;
31760;SDS011;18335;51.486;7.562;2023-12-29T12:22:24;4.72;;;0.90;;
31760;SDS011;18335;51.486;7.562;2023-12-29T12:24:55;3.95;;;0.77;;
31760;SDS011;18335;51.486;7.562;2023-12-29T12:27:23;7.40;;;0.68;;
31760;SDS011;18335;51.486;7.562;2023-12-29T12:29:52;5.78;;;0.80;;
31760;SDS011;18335;51.486;7.562;2023-12-29T12:32:22;2.10;;;0.70;;
31760;SDS011;18335;51.486;7.562;2023-12-29T12:34:48;5.68;;;2.45;;
31760;SDS011;18335;51.486;7.562;2023-12-29T12:37:19;2.80;;;0.60;;
31760;SDS011;18335;51.486;7.562;2023-12-29T12:39:47;3.55;;;0.73;;
31760;SDS011;18335;51.486;7.562;2023-12-29T12:42:15;4.15;;;0.70;;
31760;SDS011;18335;51.486;7.562;2023-12-29T12:44:46;5.35;;;1.13;;
31760;SDS011;18335;51.486;7.562;2023-12-29T12:47:18;5.50;;;0.90;;
31760;SDS011;18335;51.486;7.562;2023-12-29T12:49:50;2.38;;;0.63;;
31760;SDS011;18335;51.486;7.562;2023-12-29T12:52:17;2.65;;;0.70;;
31760;SDS011;18335;51.486;7.562;2023-12-29T12:54:46;2.53;;;0.77;;
31760;SDS011;18335;51.486;7.562;2023-12-29T12:57:17;3.05;;;0.70;;
31760;SDS011;18335;51.486;7.562;2023-12-29T12:59:45;4.55;;;1.67;;
31760;SDS011;18335;51.486;7.562;2023-12-29T13:02:13;4.55;;;1.27;;
31760;SDS011;18335;51.486;7.562;2023-12-29T13:04:40;4.75;;;0.80;;
31760;SDS011;18335;51.486;7.562;2023-12-29T13:07:07;3.75;;;0.70;;
31760;SDS011;18335;51.486;7.562;2023-12-29T13:09:35;5.00;;;0.90;;
31760;SDS011;18335;51.486;7.562;2023-12-29T13:12:11;6.15;;;0.98;;
31760;SDS011;18335;51.486;7.562;2023-12-29T13:14:39;4.03;;;0.85;;
31760;SDS011;18335;51.486;7.562;2023-12-29T13:17:06;7.05;;;0.80;;
31760;SDS011;18335;51.486;7.562;2023-12-29T13:19:36;3.17;;;0.70;;
31760;SDS011;18335;51.486;7.562;2023-12-29T13:22:05;1.85;;;0.63;;
31760;SDS011;18335;51.486;7.562;2023-12-29T13:24:34;1.13;;;0.35;;
31760;SDS011;18335;51.486;7.562;2023-12-29T13:27:02;3.75;;;1.05;;
31760;SDS011;18335;51.486;7.562;2023-12-29T13:29:32;5.35;;;0.85;;
31760;SDS011;18335;51.486;7.562;2023-12-29T13:32:03;2.45;;;1.05;;
31760;SDS011;18335;51.486;7.562;2023-12-29T13:34:35;5.90;;;1.00;;
31760;SDS011;18335;51.486;7.562;2023-12-29T13:37:09;4.20;;;1.48;;
31760;SDS011;18335;51.486;7.562;2023-12-29T13:39:52;4.97;;;0.90;;
31760;SDS011;18335;51.486;7.562;2023-12-29T13:42:22;5.38;;;0.80;;
31760;SDS011;18335;51.486;7.562;2023-12-29T13:44:52;4.43;;;0.90;;
31760;SDS011;18335;51.486;7.562;2023-12-29T13:47:21;2.72;;;0.50;;
31760;SDS011;18335;51.486;7.562;2023-12-29T13:49:48;3.95;;;0.80;;
31760;SDS011;18335;51.486;7.562;2023-12-29T13:52:16;2.72;;;0.68;;
31760;SDS011;18335;51.486;7.562;2023-12-29T13:54:44;3.58;;;0.93;;
31760;SDS011;18335;51.486;7.562;2023-12-29T13:57:11;1.88;;;0.70;;
31760;SDS011;18335;51.486;7.562;2023-12-29T13:59:38;0.88;;;0.60;;
31760;SDS011;18335;51.486;7.562;2023-12-29T14:02:18;0.93;;;0.60;;
31760;SDS011;18335;51.486;7.562;2023-12-29T14:04:46;2.65;;;0.80;;
31760;SDS011;18335;51.486;7.562;2023-12-29T14:07:13;3.08;;;0.70;;
31760;SDS011;18335;51.486;7.562;2023-12-29T14:09:41;5.22;;;1.73;;
31760;SDS011;18335;51.486;7.562;2023-12-29T14:12:07;6.97;;;1.27;;
31760;SDS011;18335;51.486;7.562;2023-12-29T14:14:34;4.25;;;0.93;;
31760;SDS011;18335;51.486;7.562;2023-12-29T14:17:01;4.72;;;1.10;;
31760;SDS011;18335;51.486;7.562;2023-12-29T14:19:35;2.35;;;0.85;;
31760;SDS011;18335;51.486;7.562;2023-12-29T14:22:02;1.92;;;0.77;;
31760;SDS011;18335;51.486;7.562;2023-12-29T14:24:29;9.73;;;2.08;;
31760;SDS011;18335;51.486;7.562;2023-12-29T14:26:56;5.43;;;1.23;;
31760;SDS011;18335;51.486;7.562;2023-12-29T14:29:24;6.75;;;1.05;;
31760;SDS011;18335;51.486;7.562;2023-12-29T14:31:51;6.28;;;1.25;;
31760;SDS011;18335;51.486;7.562;2023-12-29T14:34:19;6.80;;;0.98;;
31760;SDS011;18335;51.486;7.562;2023-12-29T14:36:47;4.82;;;1.67;;
31760;SDS011;18335;51.486;7.562;2023-12-29T14:39:14;5.30;;;1.17;;
31760;SDS011;18335;51.486;7.562;2023-12-29T14:41:41;7.47;;;1.20;;
31760;SDS011;18335;51.486;7.562;2023-12-29T14:44:08;3.65;;;0.80;;
31760;SDS011;18335;51.486;7.562;2023-12-29T14:46:36;4.65;;;0.93;;
31760;SDS011;18335;51.486;7.562;2023-12-29T14:49:03;3.63;;;0.88;;
31760;SDS011;18335;51.486;7.562;2023-12-29T14:51:30;6.20;;;1.00;;
31760;SDS011;18335;51.486;7.562;2023-12-29T14:53:58;4.78;;;1.05;;